Time;durP1;ratioP1;P1;durP2;ratioP2;P2;SDS_P1;SDS_P2;PMS_P1;PMS_P2;Temp;Humidity;BMP_temperature;BMP_pressure;BME280_temperature;BME280_humidity;BME280_pressure;Samples;Min_cycle;Max_cycle;Signal;HPM_P1;HPM_P2
2021/12/01 00:00:17;;;;;;;1.67;1.27;;;2.90;99.90;;;;;;5033749;28;20905;-73
2021/12/01 00:02:43;;;;;;;2.50;2.30;;;2.90;99.90;;;;;;5032577;28;20214;-71
2021/12/01 00:05:09;;;;;;;3.27;1.63;;;2.90;99.90;;;;;;5032329;28;20422;-71
2021/12/01 00:07:36;;;;;;;1.70;1.60;;;2.90;99.90;;;;;;5033369;28;20430;-70
2021/12/01 00:10:07;;;;;;;0.93;0.90;;;2.80;99.90;;;;;;5033576;28;20897;-70
2021/12/01 00:12:33;;;;;;;1.27;1.17;;;2.80;99.90;;;;;;5033570;28;20418;-70
2021/12/01 00:14:59;;;;;;;4.73;1.37;;;2.80;99.90;;;;;;5033358;28;20419;-71
2021/12/01 00:17:25;;;;;;;1.90;0.90;;;2.80;99.90;;;;;;5033348;28;20488;-71
2021/12/01 00:19:51;;;;;;;4.43;1.07;;;2.80;99.90;;;;;;5033163;28;20442;-71
2021/12/01 00:22:17;;;;;;;4.33;1.37;;;2.90;99.90;;;;;;5033412;28;20513;-71
2021/12/01 00:24:43;;;;;;;2.73;1.40;;;3.20;99.90;;;;;;5033243;28;20901;-71
2021/12/01 00:27:09;;;;;;;0.90;0.90;;;3.20;99.90;;;;;;5033203;28;20429;-72
2021/12/01 00:29:34;;;;;;;1.63;1.53;;;3.10;99.90;;;;;;5033366;28;20265;-71
2021/12/01 00:32:00;;;;;;;1.20;1.10;;;3.00;99.90;;;;;;5033351;28;20195;-71
2021/12/01 00:34:26;;;;;;;2.77;1.70;;;2.90;99.90;;;;;;5033083;28;20176;-69
2021/12/01 00:36:52;;;;;;;1.00;0.87;;;2.90;99.90;;;;;;5032903;28;20195;-69
2021/12/01 00:39:17;;;;;;;0.80;0.80;;;2.90;99.90;;;;;;5033148;28;20460;-70
2021/12/01 00:41:43;;;;;;;1.60;1.50;;;2.90;99.90;;;;;;5032007;28;20215;-71
2021/12/01 00:44:10;;;;;;;1.47;1.00;;;3.00;99.90;;;;;;5014202;28;20183;-71
2021/12/01 00:46:53;;;;;;;1.17;1.07;;;3.00;99.90;;;;;;5013366;28;20200;-71
2021/12/01 00:49:18;;;;;;;1.10;1.10;;;3.00;99.90;;;;;;5013178;28;20403;-70
2021/12/01 00:51:44;;;;;;;1.20;1.10;;;3.00;99.90;;;;;;5013240;28;20425;-70
2021/12/01 00:54:10;;;;;;;3.90;0.90;;;3.00;99.90;;;;;;5013531;28;20172;-71
2021/12/01 00:56:35;;;;;;;1.60;1.20;;;3.00;99.90;;;;;;5012955;28;20196;-71
2021/12/01 00:59:01;;;;;;;1.37;1.27;;;3.10;99.90;;;;;;5013146;28;20403;-71
2021/12/01 01:01:28;;;;;;;0.67;0.67;;;3.10;99.90;;;;;;5012878;28;20228;-70
2021/12/01 01:03:53;;;;;;;1.17;1.07;;;3.10;99.90;;;;;;5013059;28;20404;-71
2021/12/01 01:06:19;;;;;;;1.13;1.03;;;3.10;99.90;;;;;;5027934;28;20824;-71
2021/12/01 01:08:46;;;;;;;14.33;1.13;;;3.10;99.90;;;;;;5013193;28;20645;-72
2021/12/01 01:16:46;;;;;;;1.17;1.00;;;3.20;99.90;;;;;;5013521;28;20438;-71
2021/12/01 01:19:14;;;;;;;7.33;1.10;;;3.20;99.90;;;;;;5013472;28;20506;-72
2021/12/01 01:21:44;;;;;;;1.30;1.20;;;3.20;99.90;;;;;;5013153;28;20443;-71
2021/12/01 01:24:11;;;;;;;2.57;1.10;;;3.20;99.90;;;;;;5013514;28;20423;-71
2021/12/01 01:26:37;;;;;;;0.60;0.60;;;3.20;99.90;;;;;;5013115;28;20431;-71
2021/12/01 01:29:04;;;;;;;1.27;1.17;;;3.20;99.90;;;;;;5013433;28;20395;-71
2021/12/01 01:31:31;;;;;;;1.80;1.03;;;3.30;99.90;;;;;;5012445;28;20527;-69
2021/12/01 01:33:58;;;;;;;1.20;1.10;;;3.30;99.90;;;;;;5012434;28;20497;-70
2021/12/01 01:36:25;;;;;;;1.13;1.03;;;3.30;99.90;;;;;;5012165;28;20782;-71
2021/12/01 01:38:51;;;;;;;1.53;1.00;;;3.30;99.90;;;;;;5012405;28;20399;-72
2021/12/01 01:41:17;;;;;;;2.40;1.20;;;3.30;99.90;;;;;;5012246;28;20546;-71
2021/12/01 01:43:45;;;;;;;3.03;1.07;;;3.30;99.90;;;;;;5027599;28;20601;-70
2021/12/01 01:46:12;;;;;;;2.80;1.00;;;3.30;99.90;;;;;;5012103;28;20518;-70
2021/12/01 01:48:53;;;;;;;1.80;0.90;;;3.30;99.90;;;;;;5012339;28;20409;-71
2021/12/01 01:51:22;;;;;;;1.37;0.77;;;3.30;99.90;;;;;;5012353;28;20472;-72
2021/12/01 01:53:49;;;;;;;1.33;0.87;;;3.30;99.90;;;;;;5011057;28;20479;-70
2021/12/01 01:56:15;;;;;;;2.00;1.00;;;3.30;99.90;;;;;;5012095;28;20513;-70
2021/12/01 01:58:41;;;;;;;0.80;0.70;;;3.30;99.90;;;;;;5012054;28;20965;-71
2021/12/01 02:01:10;;;;;;;1.10;0.90;;;3.30;99.90;;;;;;5011872;28;20449;-71
2021/12/01 02:03:41;;;;;;;0.80;0.80;;;3.30;99.90;;;;;;5012268;28;20628;-70
2021/12/01 02:06:09;;;;;;;2.97;1.43;;;3.30;99.90;;;;;;5011939;28;20419;-70
2021/12/01 02:08:37;;;;;;;7.70;1.37;;;3.30;99.90;;;;;;5011857;28;20399;-70
2021/12/01 02:11:05;;;;;;;6.20;1.17;;;3.40;99.90;;;;;;5011853;28;20414;-69
2021/12/01 02:13:32;;;;;;;4.63;1.20;;;3.40;99.90;;;;;;5011536;28;20442;-71
2021/12/01 02:15:58;;;;;;;1.63;1.00;;;3.40;99.90;;;;;;5011543;28;20466;-71
2021/12/01 02:18:25;;;;;;;2.90;1.40;;;3.50;99.90;;;;;;5012160;28;20771;-72
2021/12/01 02:21:08;;;;;;;1.90;0.83;;;3.40;99.90;;;;;;5027553;28;20549;-72
2021/12/01 02:23:45;;;;;;;2.97;1.57;;;3.50;99.90;;;;;;5012070;28;20402;-71
2021/12/01 02:26:12;;;;;;;5.43;0.90;;;3.40;99.90;;;;;;5013439;28;20446;-70
2021/12/01 02:28:41;;;;;;;2.73;1.23;;;3.40;99.90;;;;;;5015778;28;20427;-71
2021/12/01 02:31:07;;;;;;;2.50;1.20;;;3.40;99.90;;;;;;5015550;28;20434;-71
2021/12/01 02:33:33;;;;;;;1.67;0.90;;;3.40;99.90;;;;;;5015618;28;20548;-70
2021/12/01 02:35:58;;;;;;;1.87;0.90;;;3.40;99.90;;;;;;5015382;28;20550;-71
2021/12/01 02:38:25;;;;;;;4.67;2.10;;;3.40;99.90;;;;;;5015578;28;20165;-71
2021/12/01 02:40:51;;;;;;;2.30;1.57;;;3.40;99.90;;;;;;5030318;28;20606;-71
2021/12/01 02:43:18;;;;;;;1.20;1.10;;;3.40;99.90;;;;;;5015176;28;20506;-72
2021/12/01 02:45:43;;;;;;;1.43;1.07;;;3.40;99.90;;;;;;5015192;28;20423;-71
2021/12/01 02:48:13;;;;;;;3.53;0.90;;;3.50;99.90;;;;;;5015300;28;20396;-71
2021/12/01 02:50:41;;;;;;;0.80;0.80;;;3.50;99.90;;;;;;5015268;28;20426;-71
2021/12/01 02:53:06;;;;;;;2.10;1.23;;;3.50;99.90;;;;;;5015792;28;20407;-71
2021/12/01 02:55:39;;;;;;;1.87;1.30;;;3.60;99.90;;;;;;5013792;28;20421;-71
2021/12/01 02:58:05;;;;;;;3.93;1.00;;;3.60;99.90;;;;;;5014981;28;20172;-71
2021/12/01 03:00:30;;;;;;;1.43;1.33;;;3.60;99.90;;;;;;5029947;28;20867;-71
2021/12/01 03:02:56;;;;;;;1.53;1.43;;;3.60;99.90;;;;;;5014910;28;20157;-71
2021/12/01 03:05:23;;;;;;;1.30;1.20;;;3.60;99.90;;;;;;5014951;28;20180;-70
2021/12/01 03:07:49;;;;;;;0.60;0.60;;;3.60;99.90;;;;;;5014989;28;20411;-72
2021/12/01 03:10:15;;;;;;;3.13;1.40;;;3.60;99.90;;;;;;5015078;28;20793;-72
2021/12/01 03:12:41;;;;;;;1.77;1.67;;;3.70;99.90;;;;;;5014927;28;20399;-72
2021/12/01 03:15:10;;;;;;;2.80;0.87;;;3.60;99.90;;;;;;5014824;28;20172;-72
2021/12/01 03:17:36;;;;;;;1.17;1.07;;;3.60;99.90;;;;;;5030157;28;20436;-72
2021/12/01 03:20:04;;;;;;;3.87;1.70;;;3.70;99.90;;;;;;5014542;28;20973;-72
2021/12/01 03:22:29;;;;;;;1.40;1.30;;;3.70;99.90;;;;;;5014676;28;21074;-71
2021/12/01 03:24:56;;;;;;;2.93;1.13;;;3.70;99.90;;;;;;5014754;28;20409;-70
2021/12/01 03:27:21;;;;;;;1.63;1.10;;;3.80;99.90;;;;;;5014545;28;20184;-71
2021/12/01 03:29:50;;;;;;;4.93;1.13;;;3.70;99.90;;;;;;5014499;28;20418;-70
2021/12/01 03:32:16;;;;;;;1.23;1.13;;;3.70;99.90;;;;;;5014506;28;20287;-71
2021/12/01 03:34:43;;;;;;;8.10;1.13;;;3.80;99.90;;;;;;5014527;28;20399;-71
2021/12/01 03:37:10;;;;;;;1.00;0.90;;;3.80;99.90;;;;;;5014393;28;20423;-71
2021/12/01 03:39:36;;;;;;;3.33;1.27;;;3.80;99.90;;;;;;5014471;28;20414;-71
2021/12/01 03:42:03;;;;;;;1.00;0.87;;;3.80;99.90;;;;;;5014352;28;20458;-72
2021/12/01 03:44:29;;;;;;;0.90;0.83;;;3.80;99.90;;;;;;5014264;28;20972;-71
2021/12/01 03:46:55;;;;;;;2.30;1.57;;;3.80;99.90;;;;;;5014203;28;20419;-71
2021/12/01 03:49:21;;;;;;;1.00;0.90;;;3.80;99.90;;;;;;5014329;28;20168;-71
2021/12/01 03:51:46;;;;;;;3.70;0.90;;;3.90;99.90;;;;;;5014067;28;20485;-72
2021/12/01 03:54:12;;;;;;;1.10;0.90;;;3.80;99.90;;;;;;5014163;28;20177;-70
2021/12/01 03:56:38;;;;;;;1.00;1.00;;;3.90;99.90;;;;;;5014169;28;20184;-71
2021/12/01 03:59:05;;;;;;;12.37;1.83;;;3.90;99.90;;;;;;5012936;28;20517;-71
2021/12/01 04:01:31;;;;;;;1.00;0.90;;;3.90;99.90;;;;;;5013928;28;20223;-71
2021/12/01 04:03:58;;;;;;;2.40;2.20;;;3.90;99.90;;;;;;5012870;28;20494;-71
2021/12/01 04:06:27;;;;;;;1.20;1.10;;;3.90;99.90;;;;;;5014035;28;20443;-71
2021/12/01 04:08:55;;;;;;;4.33;1.00;;;4.00;99.90;;;;;;5013995;28;20925;-71
2021/12/01 04:11:21;;;;;;;0.80;0.80;;;4.00;99.90;;;;;;5013799;28;20460;-72
2021/12/01 04:13:48;;;;;;;3.03;0.90;;;4.00;99.90;;;;;;5013750;28;20874;-71
2021/12/01 04:16:14;;;;;;;2.70;1.30;;;4.00;99.90;;;;;;5013631;28;20338;-71
2021/12/01 04:18:40;;;;;;;1.53;1.30;;;4.00;99.90;;;;;;5013613;28;20502;-72
2021/12/01 04:21:06;;;;;;;1.10;1.00;;;4.00;99.90;;;;;;5013617;28;20188;-73
2021/12/01 04:23:34;;;;;;;1.90;1.00;;;4.00;99.90;;;;;;5013438;28;20545;-72
2021/12/01 04:26:01;;;;;;;1.37;1.03;;;4.00;99.90;;;;;;5013268;28;20434;-71
2021/12/01 04:28:27;;;;;;;1.97;0.97;;;4.00;99.90;;;;;;5013340;28;20402;-70
2021/12/01 04:30:52;;;;;;;3.53;1.53;;;4.00;99.90;;;;;;5013361;28;20399;-70
2021/12/01 04:33:18;;;;;;;3.17;1.63;;;4.00;99.90;;;;;;5013281;28;20423;-72
2021/12/01 04:35:45;;;;;;;1.70;1.00;;;4.10;99.90;;;;;;5013155;28;20193;-70
2021/12/01 04:38:11;;;;;;;3.23;1.93;;;4.10;99.90;;;;;;5013969;28;20210;-70
2021/12/01 04:40:37;;;;;;;1.20;1.10;;;4.10;99.90;;;;;;5028511;28;20977;-72
2021/12/01 04:43:02;;;;;;;1.23;1.13;;;4.10;99.90;;;;;;5013055;28;20184;-72
2021/12/01 04:45:31;;;;;;;1.10;0.97;;;4.10;99.90;;;;;;5012899;28;20567;-72
2021/12/01 04:47:57;;;;;;;4.40;1.90;;;4.10;99.90;;;;;;5012887;28;20601;-71
2021/12/01 04:50:26;;;;;;;4.57;1.63;;;4.10;99.90;;;;;;5012625;28;20406;-71
2021/12/01 04:52:54;;;;;;;7.30;1.37;;;4.10;99.90;;;;;;5012865;28;20461;-71
2021/12/01 04:55:20;;;;;;;1.20;1.10;;;4.10;99.90;;;;;;5012965;28;20462;-71
2021/12/01 04:57:47;;;;;;;2.03;1.90;;;4.00;99.90;;;;;;5012400;28;20435;-70
2021/12/01 05:00:17;;;;;;;0.77;0.77;;;4.00;99.90;;;;;;5012656;28;20246;-73
2021/12/01 05:02:43;;;;;;;2.87;1.10;;;3.90;99.90;;;;;;5013008;28;20793;-73
2021/12/01 05:05:09;;;;;;;1.07;0.80;;;4.00;99.90;;;;;;5011654;28;20503;-72
2021/12/01 05:07:34;;;;;;;0.73;0.70;;;4.00;99.90;;;;;;5012798;28;20434;-72
2021/12/01 05:10:00;;;;;;;1.60;1.50;;;3.90;99.90;;;;;;5012651;28;20415;-72
2021/12/01 05:12:26;;;;;;;2.50;1.30;;;4.00;99.90;;;;;;5012833;28;20222;-71
2021/12/01 05:14:51;;;;;;;2.10;1.43;;;4.00;99.90;;;;;;5012433;28;20239;-72
2021/12/01 05:17:19;;;;;;;1.57;1.40;;;4.00;99.90;;;;;;5012384;28;20219;-72
2021/12/01 05:19:45;;;;;;;1.00;0.83;;;4.00;99.90;;;;;;5012261;28;20176;-72
2021/12/01 05:22:11;;;;;;;12.60;1.30;;;4.00;99.90;;;;;;5012342;28;20887;-72
2021/12/01 05:24:37;;;;;;;1.47;1.20;;;4.00;99.90;;;;;;5012191;28;20407;-72
2021/12/01 05:27:04;;;;;;;6.53;1.93;;;4.00;99.90;;;;;;5011997;28;20897;-71
2021/12/01 05:29:30;;;;;;;2.73;1.00;;;4.00;99.90;;;;;;5012222;28;20435;-71
2021/12/01 05:31:56;;;;;;;0.80;0.80;;;4.00;99.90;;;;;;5012235;28;20408;-72
2021/12/01 05:34:23;;;;;;;4.97;3.10;;;4.00;99.90;;;;;;5012155;28;20770;-73
2021/12/01 05:36:49;;;;;;;3.33;1.60;;;4.00;99.90;;;;;;5011698;28;20975;-72
2021/12/01 05:39:14;;;;;;;0.80;0.80;;;4.00;99.90;;;;;;5011980;28;20415;-72
2021/12/01 05:41:40;;;;;;;3.57;2.27;;;4.00;99.90;;;;;;5011954;28;20268;-72
2021/12/01 05:44:06;;;;;;;1.70;1.57;;;4.10;99.90;;;;;;5011869;28;20203;-74
2021/12/01 05:46:32;;;;;;;1.50;1.40;;;4.10;99.90;;;;;;5010573;28;20188;-72
2021/12/01 05:48:57;;;;;;;1.63;1.37;;;4.10;99.90;;;;;;5011989;28;20407;-72
2021/12/01 05:51:23;;;;;;;1.43;1.33;;;4.10;99.90;;;;;;5012131;28;20168;-72
2021/12/01 05:53:49;;;;;;;1.13;1.03;;;4.10;99.90;;;;;;5012001;28;20651;-72
2021/12/01 05:56:15;;;;;;;0.87;0.87;;;4.10;99.90;;;;;;5014393;28;20205;-73
2021/12/01 05:58:41;;;;;;;1.67;1.27;;;4.00;99.90;;;;;;5031570;28;20406;-74
2021/12/01 06:01:07;;;;;;;1.37;1.00;;;4.10;99.90;;;;;;5030585;28;20450;-73
2021/12/01 06:03:32;;;;;;;1.00;0.97;;;4.10;99.90;;;;;;5031456;28;20406;-73
2021/12/01 06:05:58;;;;;;;2.20;1.33;;;4.10;99.90;;;;;;5031237;28;20924;-73
2021/12/01 06:08:24;;;;;;;0.90;0.90;;;4.10;99.90;;;;;;5031599;28;20172;-72
2021/12/01 06:10:50;;;;;;;6.90;1.60;;;4.10;99.90;;;;;;5030072;28;20410;-72
2021/12/01 06:13:17;;;;;;;0.80;0.80;;;4.20;99.90;;;;;;5031470;28;20198;-72
2021/12/01 06:15:44;;;;;;;13.00;1.27;;;4.20;99.90;;;;;;5031025;28;20452;-74
2021/12/01 06:18:11;;;;;;;2.77;1.17;;;4.20;99.90;;;;;;5031448;28;20498;-71
2021/12/01 06:20:38;;;;;;;1.37;0.80;;;4.20;99.90;;;;;;5029784;28;20511;-72
2021/12/01 06:23:04;;;;;;;1.90;1.73;;;4.20;99.90;;;;;;5031155;28;20986;-71
2021/12/01 06:25:29;;;;;;;0.80;0.70;;;4.20;99.90;;;;;;5031081;28;20422;-72
2021/12/01 06:27:56;;;;;;;1.63;1.53;;;4.20;99.90;;;;;;5031344;28;20167;-71
2021/12/01 06:30:24;;;;;;;2.30;0.90;;;4.20;99.90;;;;;;5031158;28;20168;-73
2021/12/01 06:32:50;;;;;;;2.23;2.00;;;4.30;99.90;;;;;;5031281;28;20426;-72
2021/12/01 06:35:16;;;;;;;10.30;2.10;;;4.30;99.90;;;;;;5031172;28;20411;-72
2021/12/01 06:37:42;;;;;;;1.53;1.43;;;4.30;99.90;;;;;;5031008;28;20426;-72
2021/12/01 06:40:09;;;;;;;1.47;1.30;;;4.30;99.90;;;;;;5031129;28;20406;-72
2021/12/01 06:42:35;;;;;;;2.60;2.03;;;4.30;99.90;;;;;;5031363;28;20163;-71
2021/12/01 06:45:06;;;;;;;3.40;2.00;;;4.40;99.90;;;;;;5031377;28;20430;-73
2021/12/01 06:47:32;;;;;;;4.27;2.30;;;4.40;99.90;;;;;;5031647;28;20418;-74
2021/12/01 06:49:59;;;;;;;7.90;1.50;;;4.40;99.90;;;;;;5031737;28;20461;-72
2021/12/01 06:52:28;;;;;;;3.37;1.93;;;4.40;99.90;;;;;;5031155;28;20757;-72
2021/12/01 06:54:54;;;;;;;1.57;1.47;;;4.40;99.90;;;;;;5031503;28;20421;-72
2021/12/01 06:57:20;;;;;;;1.40;1.30;;;4.40;99.90;;;;;;5031182;28;20449;-73
2021/12/01 06:59:45;;;;;;;3.87;3.57;;;4.50;99.90;;;;;;5031403;28;20407;-72
2021/12/01 07:02:11;;;;;;;5.70;3.77;;;4.50;99.90;;;;;;5030381;28;20294;-72
2021/12/01 07:04:37;;;;;;;1.27;1.17;;;4.50;99.90;;;;;;5030020;28;20172;-72
2021/12/01 07:07:03;;;;;;;1.53;1.33;;;4.50;99.90;;;;;;5031142;28;20184;-72
2021/12/01 07:09:28;;;;;;;1.30;1.20;;;4.50;99.90;;;;;;5031281;28;20175;-74
2021/12/01 07:11:54;;;;;;;3.47;2.10;;;4.50;99.90;;;;;;5032325;28;20221;-73
2021/12/01 07:14:20;;;;;;;1.40;1.30;;;4.50;99.90;;;;;;5034582;28;20178;-73
2021/12/01 07:16:46;;;;;;;2.60;1.17;;;4.60;99.90;;;;;;5034332;28;20422;-73
2021/12/01 07:19:12;;;;;;;1.70;1.47;;;4.60;99.90;;;;;;5034341;28;21113;-72
2021/12/01 07:21:37;;;;;;;2.30;2.10;;;4.70;99.90;;;;;;5034385;28;20192;-73
2021/12/01 07:24:04;;;;;;;4.40;1.30;;;4.70;99.90;;;;;;5034312;28;20233;-73
2021/12/01 07:26:30;;;;;;;3.30;1.67;;;4.80;99.90;;;;;;5034040;28;20286;-73
2021/12/01 07:28:56;;;;;;;1.60;1.40;;;4.70;99.90;;;;;;5034358;28;20485;-71
2021/12/01 07:31:21;;;;;;;1.97;1.77;;;4.70;99.90;;;;;;5034026;28;20486;-71
2021/12/01 07:33:47;;;;;;;3.73;2.83;;;4.70;99.90;;;;;;5034095;28;20203;-73
2021/12/01 07:36:15;;;;;;;2.47;1.70;;;4.80;99.90;;;;;;5033910;28;20211;-72
2021/12/01 07:38:41;;;;;;;1.53;1.43;;;4.80;99.90;;;;;;5033967;28;20646;-72
2021/12/01 07:41:06;;;;;;;5.03;1.67;;;4.80;99.90;;;;;;5033907;28;20461;-71
2021/12/01 07:43:32;;;;;;;1.13;1.13;;;4.90;99.90;;;;;;5033959;28;20403;-70
2021/12/01 07:46:00;;;;;;;2.00;1.80;;;4.90;99.90;;;;;;5033841;28;20220;-71
2021/12/01 07:48:30;;;;;;;2.73;2.03;;;4.90;99.90;;;;;;5032558;28;20193;-70
2021/12/01 07:50:55;;;;;;;1.40;1.30;;;5.00;99.90;;;;;;5033793;28;20446;-72
2021/12/01 07:53:24;;;;;;;1.80;1.70;;;5.10;99.90;;;;;;5033799;28;20430;-71
2021/12/01 07:55:49;;;;;;;2.80;1.83;;;5.20;99.90;;;;;;5033693;28;20278;-72
2021/12/01 07:58:15;;;;;;;1.53;1.43;;;5.20;99.90;;;;;;5033767;28;20493;-71
2021/12/01 08:00:41;;;;;;;2.07;1.70;;;5.30;99.90;;;;;;5033597;28;20187;-72
2021/12/01 08:03:06;;;;;;;2.53;2.33;;;5.40;99.90;;;;;;5033518;28;20159;-72
2021/12/01 08:05:33;;;;;;;2.03;1.30;;;5.40;99.90;;;;;;5032071;28;20546;-71
2021/12/01 08:07:58;;;;;;;4.50;2.77;;;5.50;99.90;;;;;;5033659;28;20654;-71
2021/12/01 08:10:24;;;;;;;2.13;1.90;;;5.60;99.90;;;;;;5033677;28;20406;-72
2021/12/01 08:12:51;;;;;;;5.73;2.70;;;5.60;99.90;;;;;;5032499;28;20270;-73
2021/12/01 08:15:16;;;;;;;5.00;2.93;;;5.60;99.90;;;;;;5033527;28;20413;-71
2021/12/01 08:17:42;;;;;;;3.80;2.13;;;5.70;99.90;;;;;;5033500;28;20430;-71
2021/12/01 08:20:08;;;;;;;1.73;1.40;;;5.70;99.90;;;;;;5033317;28;20245;-70
2021/12/01 08:22:34;;;;;;;3.80;3.23;;;5.80;99.90;;;;;;5033363;28;20168;-70
2021/12/01 08:24:59;;;;;;;3.30;2.80;;;5.80;99.90;;;;;;5031453;28;20472;-70
2021/12/01 08:27:26;;;;;;;3.17;2.07;;;5.90;99.90;;;;;;5033298;28;20180;-71
2021/12/01 08:29:52;;;;;;;2.40;1.90;;;5.90;99.90;;;;;;5033120;28;20199;-71
2021/12/01 08:32:18;;;;;;;3.50;2.30;;;6.00;99.90;;;;;;5033028;28;20823;-70
2021/12/01 08:34:49;;;;;;;4.27;2.63;;;6.10;99.90;;;;;;5033567;28;20258;-71
2021/12/01 08:37:18;;;;;;;2.87;2.60;;;6.10;99.90;;;;;;5032784;28;20187;-72
2021/12/01 08:39:44;;;;;;;2.40;1.87;;;6.10;99.90;;;;;;5032793;28;20406;-72
2021/12/01 08:42:10;;;;;;;2.57;2.33;;;6.20;99.90;;;;;;5032782;28;20454;-71
2021/12/01 08:44:36;;;;;;;3.03;2.60;;;6.20;99.90;;;;;;5013746;28;20805;-71
2021/12/01 08:47:02;;;;;;;3.03;2.73;;;6.20;99.90;;;;;;5012639;28;20519;-71
2021/12/01 08:49:28;;;;;;;3.20;2.90;;;6.30;99.90;;;;;;5012650;28;20766;-72
2021/12/01 08:51:54;;;;;;;3.53;2.77;;;6.30;99.90;;;;;;5012234;28;20825;-71
2021/12/01 08:54:20;;;;;;;5.77;3.93;;;6.30;99.90;;;;;;5037076;28;20454;-72
2021/12/01 08:56:45;;;;;;;1.90;1.80;;;6.30;99.90;;;;;;5051259;28;20562;-71
2021/12/01 08:59:11;;;;;;;2.80;2.60;;;6.40;99.90;;;;;;5054495;28;20171;-72
2021/12/01 09:01:37;;;;;;;1.60;1.50;;;6.40;99.90;;;;;;5051968;28;20187;-72
2021/12/01 09:04:03;;;;;;;2.67;1.90;;;6.40;99.90;;;;;;5057778;28;20159;-71
2021/12/01 09:06:30;;;;;;;1.87;1.77;;;6.40;99.90;;;;;;5055109;28;20516;-72
2021/12/01 09:08:56;;;;;;;2.13;2.03;;;6.40;99.90;;;;;;5052595;28;20402;-72
2021/12/01 09:11:21;;;;;;;4.43;2.67;;;6.50;99.90;;;;;;5039374;28;20435;-71
2021/12/01 09:13:47;;;;;;;4.03;3.40;;;6.50;99.90;;;;;;5021902;28;20677;-73
2021/12/01 09:16:13;;;;;;;2.83;2.30;;;6.50;99.90;;;;;;5012873;28;20227;-72
2021/12/01 09:18:40;;;;;;;2.50;1.83;;;6.50;99.90;;;;;;5029916;28;20246;-71
2021/12/01 09:21:06;;;;;;;4.33;2.33;;;6.50;99.90;;;;;;5032147;28;20263;-73
2021/12/01 09:23:32;;;;;;;2.80;2.27;;;6.50;99.90;;;;;;5033285;28;20434;-72
2021/12/01 09:25:57;;;;;;;3.93;3.10;;;6.50;99.90;;;;;;5032817;28;20202;-71
2021/12/01 09:28:29;;;;;;;10.83;2.40;;;6.60;99.90;;;;;;5031677;28;20438;-73
2021/12/01 09:30:58;;;;;;;1.70;1.60;;;6.50;99.90;;;;;;5029171;28;20850;-73
2021/12/01 09:33:29;;;;;;;2.43;2.23;;;6.60;99.90;;;;;;5034367;28;20408;-73
2021/12/01 09:35:56;;;;;;;2.03;1.77;;;6.60;99.90;;;;;;5020080;28;20815;-71
2021/12/01 09:38:22;;;;;;;2.70;2.37;;;6.60;99.90;;;;;;5012216;28;20777;-72
2021/12/01 09:40:52;;;;;;;1.77;1.57;;;6.60;99.90;;;;;;5012430;28;20861;-72
2021/12/01 09:43:22;;;;;;;1.97;1.50;;;6.60;99.90;;;;;;5031597;28;20461;-71
2021/12/01 09:45:48;;;;;;;2.80;1.90;;;6.70;99.90;;;;;;5031949;28;20959;-71
2021/12/01 09:48:15;;;;;;;1.53;1.43;;;6.70;99.90;;;;;;5026755;28;20406;-71
2021/12/01 09:50:40;;;;;;;2.57;2.03;;;6.60;99.90;;;;;;5023601;28;20484;-71
2021/12/01 09:53:06;;;;;;;3.00;2.83;;;6.70;99.90;;;;;;5032700;28;20411;-70
2021/12/01 09:55:32;;;;;;;4.10;1.93;;;6.70;99.90;;;;;;5031915;28;20172;-71
2021/12/01 09:58:06;;;;;;;2.93;1.70;;;6.70;99.90;;;;;;5031698;28;20561;-72
2021/12/01 10:00:35;;;;;;;1.63;1.53;;;6.80;99.90;;;;;;5028589;28;20848;-70
2021/12/01 10:03:01;;;;;;;1.77;1.23;;;6.80;99.90;;;;;;5024617;28;20543;-69
2021/12/01 10:05:53;;;;;;;1.43;1.33;;;6.80;99.90;;;;;;5022483;28;20565;-69
2021/12/01 10:08:25;;;;;;;1.60;1.20;;;6.80;99.90;;;;;;5022101;28;20497;-70
2021/12/01 10:10:52;;;;;;;1.27;1.10;;;6.80;99.90;;;;;;5030118;28;20472;-70
2021/12/01 10:13:30;;;;;;;1.33;1.23;;;6.80;99.90;;;;;;5031182;28;20501;-69
2021/12/01 10:15:58;;;;;;;1.27;1.17;;;6.80;99.90;;;;;;5029346;28;20446;-70
2021/12/01 10:18:25;;;;;;;1.90;1.80;;;6.80;99.90;;;;;;5030983;28;20406;-71
2021/12/01 10:21:09;;;;;;;1.30;1.20;;;6.90;99.90;;;;;;5030703;28;20458;-70
2021/12/01 10:23:37;;;;;;;1.73;1.60;;;6.90;99.90;;;;;;5020167;28;20486;-71
2021/12/01 10:26:27;;;;;;;2.27;1.83;;;6.90;99.90;;;;;;5021494;28;20451;-69
2021/12/01 10:28:56;;;;;;;1.50;1.20;;;6.90;99.90;;;;;;5021561;28;20513;-71
2021/12/01 10:31:47;;;;;;;2.47;1.20;;;7.00;99.90;;;;;;5025935;28;20435;-72
2021/12/01 10:34:14;;;;;;;1.23;1.13;;;6.90;99.90;;;;;;5029624;28;20418;-72
2021/12/01 10:36:40;;;;;;;3.03;1.50;;;6.90;99.90;;;;;;5030272;28;20980;-71
2021/12/01 10:39:06;;;;;;;1.73;1.63;;;6.90;99.90;;;;;;5031332;28;20412;-72
2021/12/01 10:41:36;;;;;;;1.53;1.40;;;6.90;99.90;;;;;;5030126;28;20249;-74
2021/12/01 10:44:17;;;;;;;1.90;1.70;;;7.00;99.90;;;;;;5022648;28;21018;-71
2021/12/01 10:46:48;;;;;;;1.93;1.50;;;6.90;99.90;;;;;;5012636;28;20415;-73
2021/12/01 10:49:15;;;;;;;1.37;1.27;;;7.00;99.90;;;;;;5028488;28;20430;-71
2021/12/01 10:51:43;;;;;;;1.73;1.63;;;6.90;99.90;;;;;;5034917;28;20808;-72
2021/12/01 10:54:19;;;;;;;1.23;1.13;;;6.90;99.90;;;;;;5034788;28;20406;-71
2021/12/01 10:57:05;;;;;;;1.90;1.80;;;6.90;99.90;;;;;;5034781;28;20440;-73
2021/12/01 10:59:44;;;;;;;2.30;2.00;;;7.00;99.90;;;;;;5034450;28;20414;-72
2021/12/01 11:02:11;;;;;;;1.83;1.60;;;7.00;99.90;;;;;;5026027;28;20490;-70
2021/12/01 11:04:45;;;;;;;2.00;1.73;;;6.90;99.90;;;;;;5034392;28;20939;-74
2021/12/01 11:07:24;;;;;;;1.60;1.50;;;6.90;99.90;;;;;;5034309;28;20455;-72
2021/12/01 11:10:18;;;;;;;2.00;1.80;;;6.90;99.90;;;;;;5034555;28;20406;-71
2021/12/01 11:12:52;;;;;;;2.07;1.70;;;6.80;99.90;;;;;;5029961;28;20418;-72
2021/12/01 11:15:34;;;;;;;1.37;1.10;;;6.80;99.90;;;;;;5034505;28;20422;-72
2021/12/01 11:18:01;;;;;;;1.70;1.20;;;6.80;99.90;;;;;;5034656;28;20406;-72
2021/12/01 11:20:43;;;;;;;2.20;1.30;;;6.80;99.90;;;;;;5034343;28;20896;-71
2021/12/01 11:23:30;;;;;;;1.33;1.23;;;6.80;99.90;;;;;;5034371;28;20410;-71
2021/12/01 11:26:09;;;;;;;2.80;2.10;;;6.80;99.90;;;;;;5034269;28;20422;-72
2021/12/01 11:28:44;;;;;;;3.00;1.43;;;6.80;99.90;;;;;;5034473;28;20402;-71
2021/12/01 11:31:20;;;;;;;2.30;1.27;;;6.80;99.90;;;;;;5034410;28;20406;-72
2021/12/01 11:33:47;;;;;;;1.80;1.67;;;6.80;99.90;;;;;;5034337;28;20405;-70
2021/12/01 11:36:18;;;;;;;1.80;1.70;;;6.80;99.90;;;;;;5033883;28;20438;-71
2021/12/01 11:38:52;;;;;;;2.90;2.63;;;6.80;99.90;;;;;;5022436;28;20412;-71
2021/12/01 11:41:19;;;;;;;1.50;1.23;;;6.90;99.90;;;;;;5029878;28;21034;-72
2021/12/01 11:43:46;;;;;;;2.50;2.17;;;6.90;99.90;;;;;;5034052;28;20418;-72
2021/12/01 11:46:12;;;;;;;2.10;1.70;;;6.90;99.90;;;;;;5033830;28;20450;-71
2021/12/01 11:48:50;;;;;;;1.50;1.40;;;6.90;99.90;;;;;;5033942;28;20936;-70
2021/12/01 11:51:23;;;;;;;1.70;1.60;;;6.90;99.90;;;;;;5033995;28;20479;-70
2021/12/01 11:53:55;;;;;;;1.97;1.87;;;6.90;99.90;;;;;;5034072;28;20419;-71
2021/12/01 11:56:29;;;;;;;1.30;1.20;;;6.90;99.90;;;;;;5033600;28;20430;-71
2021/12/01 11:59:04;;;;;;;2.03;1.30;;;6.90;99.90;;;;;;5032838;28;20418;-72
2021/12/01 12:01:30;;;;;;;1.17;1.10;;;7.00;99.90;;;;;;5033411;28;20464;-72
2021/12/01 12:04:01;;;;;;;1.83;1.73;;;7.00;99.90;;;;;;5034072;28;20897;-71
2021/12/01 12:06:35;;;;;;;1.70;1.60;;;7.00;99.90;;;;;;5033564;28;20227;-72
2021/12/01 12:09:04;;;;;;;1.50;1.40;;;7.00;99.90;;;;;;5031592;28;20398;-71
2021/12/01 12:11:41;;;;;;;1.27;1.17;;;7.00;99.90;;;;;;5032517;28;20471;-71
2021/12/01 12:14:35;;;;;;;1.57;1.20;;;7.00;99.90;;;;;;5033350;28;20756;-70
2021/12/01 12:17:21;;;;;;;1.87;1.63;;;7.00;99.90;;;;;;5033490;28;20905;-79
2021/12/01 12:20:26;;;;;;;1.30;1.20;;;7.00;99.90;;;;;;5035041;28;20434;-71
2021/12/01 12:22:54;;;;;;;1.73;1.37;;;7.10;99.90;;;;;;5031386;28;20441;-76
2021/12/01 12:25:35;;;;;;;1.10;1.00;;;7.10;99.90;;;;;;5033648;28;20873;-72
2021/12/01 12:28:21;;;;;;;2.97;1.53;;;7.10;99.90;;;;;;5033880;28;20775;-70
2021/12/01 12:30:47;;;;;;;1.30;1.17;;;7.10;99.90;;;;;;5033436;28;20394;-72
2021/12/01 12:33:34;;;;;;;1.30;1.20;;;7.10;99.90;;;;;;5033600;28;20429;-72
2021/12/01 12:36:04;;;;;;;1.23;1.00;;;7.20;99.90;;;;;;5033217;28;20979;-72
2021/12/01 12:38:30;;;;;;;1.70;1.10;;;7.20;99.90;;;;;;5023354;28;20894;-71
2021/12/01 12:41:10;;;;;;;1.30;1.20;;;7.20;99.90;;;;;;5027437;28;20820;-71
2021/12/01 12:43:38;;;;;;;1.40;1.30;;;7.30;99.90;;;;;;5033489;28;20485;-71
2021/12/01 12:46:15;;;;;;;1.77;1.10;;;7.30;99.90;;;;;;5031520;28;20445;-71
2021/12/01 12:48:49;;;;;;;1.63;1.53;;;7.40;99.90;;;;;;5028563;28;20415;-71
2021/12/01 12:51:29;;;;;;;3.77;3.00;;;7.40;99.90;;;;;;5029912;28;20536;-71
2021/12/01 12:54:08;;;;;;;0.73;0.73;;;7.40;99.90;;;;;;5032660;28;20406;-70
2021/12/01 12:56:48;;;;;;;1.87;1.30;;;7.40;99.90;;;;;;5032687;28;20841;-71
2021/12/01 12:59:36;;;;;;;1.83;1.37;;;7.40;99.90;;;;;;5032888;28;20889;-70
2021/12/01 13:02:07;;;;;;;2.10;1.63;;;7.40;99.90;;;;;;5032495;28;20965;-73
2021/12/01 13:04:48;;;;;;;1.97;1.60;;;7.40;99.90;;;;;;5032476;28;20464;-71
2021/12/01 13:07:32;;;;;;;1.33;0.80;;;7.50;99.90;;;;;;5025612;28;20828;-71
2021/12/01 13:10:19;;;;;;;1.10;1.00;;;7.50;99.90;;;;;;5021364;28;20414;-71